createdAt,value
2018-10-01T00:01:31.309Z,17.57
2018-10-01T00:04:00.728Z,19.00
2018-10-01T00:06:30.145Z,18.00
2018-10-01T00:08:59.267Z,17.17
2018-10-01T00:11:28.474Z,17.37
2018-10-01T00:13:58.395Z,15.97
2018-10-01T00:16:27.453Z,14.37
2018-10-01T00:18:56.717Z,14.90
2018-10-01T00:21:31.272Z,14.50
2018-10-01T00:24:00.735Z,12.80
2018-10-01T00:26:30.413Z,13.40
2018-10-01T00:28:59.606Z,12.83
2018-10-01T00:31:28.782Z,12.63
2018-10-01T00:33:57.996Z,12.40
2018-10-01T00:36:27.781Z,13.70
2018-10-01T00:38:57.052Z,12.83
2018-10-01T00:41:26.332Z,13.10
2018-10-01T00:43:55.751Z,12.57
2018-10-01T00:46:24.785Z,12.60
2018-10-01T00:48:53.996Z,12.47
2018-10-01T00:51:23.143Z,12.33
2018-10-01T00:53:52.432Z,12.33
2018-10-01T00:56:21.795Z,12.80
2018-10-01T00:58:50.836Z,13.67
2018-10-01T01:01:20.118Z,13.90
2018-10-01T01:03:49.461Z,13.67
2018-10-01T01:06:18.833Z,17.87
2018-10-01T01:08:48.053Z,17.60
2018-10-01T01:11:17.326Z,18.43
2018-10-01T01:13:47.179Z,20.00
2018-10-01T01:16:17.335Z,19.97
2018-10-01T01:18:47.092Z,20.47
2018-10-01T01:21:16.433Z,20.37
2018-10-01T01:23:45.877Z,19.30
2018-10-01T01:26:15.857Z,20.47
2018-10-01T01:28:45.213Z,19.47
2018-10-01T01:31:14.340Z,19.87
2018-10-01T01:33:43.496Z,18.83
2018-10-01T01:36:12.755Z,19.53
2018-10-01T01:38:41.888Z,19.03
2018-10-01T01:41:11.376Z,19.23
2018-10-01T01:43:41.488Z,18.77
2018-10-01T01:46:10.783Z,19.23
2018-10-01T01:48:40.215Z,18.23
2018-10-01T01:51:09.994Z,20.03
2018-10-01T01:53:39.459Z,19.30
2018-10-01T01:56:08.683Z,19.27
2018-10-01T01:58:37.982Z,19.87
2018-10-01T02:01:07.421Z,19.13
2018-10-01T02:03:36.664Z,20.03
2018-10-01T02:06:06.092Z,19.57
2018-10-01T02:08:35.476Z,17.23
2018-10-01T02:11:05.055Z,19.43
2018-10-01T02:13:34.332Z,17.87
2018-10-01T02:16:03.921Z,17.43
2018-10-01T02:18:33.197Z,17.87
2018-10-01T02:21:02.240Z,19.50
2018-10-01T02:23:31.408Z,22.67
2018-10-01T02:26:00.556Z,22.50
2018-10-01T02:28:30.048Z,22.67
2018-10-01T02:30:59.181Z,21.13
2018-10-01T02:33:28.352Z,19.80
2018-10-01T02:35:57.780Z,17.37
2018-10-01T02:38:27.025Z,17.10
2018-10-01T02:40:57.247Z,18.67
2018-10-01T02:43:26.704Z,17.53
2018-10-01T02:45:56.027Z,21.73
2018-10-01T02:48:25.692Z,20.17
2018-10-01T02:50:55.152Z,24.27
2018-10-01T02:54:33.396Z,22.80
2018-10-01T02:57:03.048Z,23.63
2018-10-01T02:59:32.256Z,26.43
2018-10-01T03:02:01.617Z,26.87
2018-10-01T03:04:31.046Z,26.70
2018-10-01T03:07:00.156Z,25.73
2018-10-01T03:09:29.387Z,25.10
2018-10-01T03:11:58.825Z,23.77
2018-10-01T03:14:28.083Z,22.47
2018-10-01T03:16:57.441Z,22.27
2018-10-01T03:19:27.052Z,25.13
2018-10-01T03:21:56.087Z,24.17
2018-10-01T03:24:25.543Z,21.80
2018-10-01T03:26:54.687Z,21.37
2018-10-01T03:29:24.024Z,20.80
2018-10-01T03:31:53.236Z,21.23
2018-10-01T03:34:22.816Z,21.20
2018-10-01T03:36:52.532Z,21.80
2018-10-01T03:39:21.556Z,20.77
2018-10-01T03:41:51.096Z,19.60
2018-10-01T03:44:20.361Z,18.90
2018-10-01T03:46:49.574Z,18.20
2018-10-01T03:49:19.288Z,18.07
2018-10-01T03:51:48.914Z,19.13
2018-10-01T03:54:18.306Z,18.97
2018-10-01T03:56:47.550Z,18.87
2018-10-01T03:59:16.666Z,20.13
2018-10-01T04:01:45.873Z,25.07
2018-10-01T04:04:15.305Z,23.87
2018-10-01T04:06:44.544Z,25.23
2018-10-01T04:09:13.992Z,25.23
2018-10-01T04:11:43.266Z,25.83
2018-10-01T04:14:12.512Z,27.43
2018-10-01T04:16:41.671Z,25.53
2018-10-01T04:19:11.075Z,25.37
2018-10-01T04:21:40.256Z,25.33
2018-10-01T04:24:09.768Z,26.80
2018-10-01T04:26:39.163Z,28.00
2018-10-01T04:29:08.667Z,29.47
2018-10-01T04:31:38.224Z,29.53
2018-10-01T04:34:07.627Z,30.23
2018-10-01T04:36:37.112Z,28.83
2018-10-01T04:39:09.569Z,28.10
2018-10-01T04:41:38.820Z,28.53
2018-10-01T04:44:08.419Z,34.47
2018-10-01T04:46:38.990Z,33.40
2018-10-01T04:49:09.349Z,34.13
2018-10-01T04:51:39.565Z,35.63
2018-10-01T04:54:09.052Z,32.97
2018-10-01T04:56:38.624Z,32.20
2018-10-01T04:59:08.343Z,30.20
2018-10-01T05:01:37.443Z,26.80
2018-10-01T05:04:06.908Z,28.23
2018-10-01T05:06:35.923Z,26.93
2018-10-01T05:09:06.400Z,30.07
2018-10-01T05:11:35.625Z,30.07
2018-10-01T05:14:05.006Z,29.13
2018-10-01T05:16:34.547Z,29.63
2018-10-01T05:19:04.285Z,31.27
2018-10-01T05:21:33.744Z,29.20
2018-10-01T05:24:03.388Z,30.90
2018-10-01T05:26:33.718Z,30.93
2018-10-01T05:29:03.439Z,32.00
2018-10-01T05:31:32.912Z,32.77
2018-10-01T05:34:02.378Z,32.27
2018-10-01T05:36:31.715Z,33.23
2018-10-01T05:39:01.312Z,31.57
2018-10-01T05:41:30.696Z,32.77
2018-10-01T05:44:00.027Z,38.23
2018-10-01T05:46:29.363Z,37.27
2018-10-01T05:48:58.746Z,37.27
2018-10-01T05:51:28.131Z,34.53
2018-10-01T05:53:57.263Z,37.90
2018-10-01T05:56:26.519Z,39.40
2018-10-01T05:58:55.759Z,36.90
2018-10-01T06:01:25.013Z,36.87
2018-10-01T06:03:54.471Z,39.13
2018-10-01T06:06:23.523Z,35.77
2018-10-01T06:08:52.464Z,35.60
2018-10-01T06:11:21.582Z,31.47
2018-10-01T06:13:50.740Z,30.83
2018-10-01T06:16:20.139Z,30.50
2018-10-01T06:18:49.848Z,29.17
2018-10-01T06:21:19.152Z,25.20
2018-10-01T06:23:48.609Z,25.83
2018-10-01T06:26:17.927Z,26.50
2018-10-01T06:28:47.485Z,23.13
2018-10-01T06:31:16.870Z,22.07
2018-10-01T06:33:46.343Z,20.80
2018-10-01T06:36:16.151Z,22.93
2018-10-01T06:38:45.307Z,26.10
2018-10-01T06:41:14.768Z,23.97
2018-10-01T06:43:44.103Z,24.17
2018-10-01T06:46:13.435Z,22.90
2018-10-01T06:48:42.694Z,21.40
2018-10-01T06:51:12.153Z,22.30
2018-10-01T06:53:42.331Z,19.63
2018-10-01T06:56:11.560Z,19.67
2018-10-01T06:58:41.185Z,18.57
2018-10-01T07:01:10.882Z,19.23
2018-10-01T07:03:40.046Z,20.43
2018-10-01T07:06:09.146Z,19.97
2018-10-01T07:08:38.664Z,19.20
2018-10-01T07:11:07.970Z,19.67
2018-10-01T07:13:37.181Z,20.50
2018-10-01T07:16:06.800Z,18.43
2018-10-01T07:18:36.193Z,15.90
2018-10-01T07:21:05.841Z,16.20
2018-10-01T07:23:35.606Z,16.00
2018-10-01T07:26:05.049Z,13.67
2018-10-01T07:28:34.076Z,15.87
2018-10-01T07:31:03.686Z,15.37
2018-10-01T07:33:33.270Z,16.10
2018-10-01T07:36:02.436Z,14.37
2018-10-01T07:38:32.136Z,15.23
2018-10-01T07:41:01.280Z,18.77
2018-10-01T07:43:30.731Z,16.43
2018-10-01T07:46:00.385Z,15.67
2018-10-01T07:48:30.167Z,22.30
2018-10-01T07:50:59.909Z,22.63
2018-10-01T07:53:29.810Z,22.87
2018-10-01T07:55:59.214Z,13.67
2018-10-01T07:58:28.624Z,12.57
2018-10-01T08:00:58.160Z,20.07
2018-10-01T08:03:27.595Z,19.83
2018-10-01T08:05:57.070Z,16.27
2018-10-01T08:08:26.840Z,10.63
2018-10-01T08:10:56.180Z,8.63
2018-10-01T08:13:25.551Z,7.73
2018-10-01T08:15:55.037Z,7.70
2018-10-01T08:18:24.265Z,7.70
2018-10-01T08:20:53.604Z,8.20
2018-10-01T08:23:23.195Z,8.17
2018-10-01T08:25:52.323Z,7.60
2018-10-01T08:28:21.976Z,8.47
2018-10-01T08:30:51.224Z,8.50
2018-10-01T08:33:20.513Z,7.70
2018-10-01T08:35:49.803Z,8.23
2018-10-01T08:38:19.658Z,7.47
2018-10-01T08:40:49.053Z,7.47
2018-10-01T08:43:18.395Z,8.33
2018-10-01T08:45:48.048Z,7.53
2018-10-01T08:48:18.440Z,7.17
2018-10-01T08:50:52.945Z,7.63
2018-10-01T08:53:30.884Z,7.57
2018-10-01T08:56:00.126Z,6.93
2018-10-01T08:58:29.383Z,8.70
2018-10-01T09:00:58.815Z,7.13
2018-10-01T09:03:28.304Z,7.30
2018-10-01T09:05:57.781Z,7.53
2018-10-01T09:08:27.395Z,6.10
2018-10-01T09:10:56.872Z,4.60
2018-10-01T09:13:26.249Z,4.43
2018-10-01T09:15:55.437Z,3.97
2018-10-01T09:18:24.776Z,4.70
2018-10-01T09:20:54.179Z,4.00
2018-10-01T09:23:23.508Z,4.20
2018-10-01T09:25:53.137Z,3.90
2018-10-01T09:28:23.028Z,3.60
2018-10-01T09:30:52.402Z,3.47
2018-10-01T09:33:21.882Z,3.10
2018-10-01T09:35:51.297Z,3.90
2018-10-01T09:38:20.610Z,3.53
2018-10-01T09:40:50.364Z,3.20
2018-10-01T09:43:19.883Z,3.10
2018-10-01T09:45:49.068Z,3.23
2018-10-01T09:48:18.189Z,2.80
2018-10-01T09:50:47.875Z,3.23
2018-10-01T09:53:16.807Z,3.40
2018-10-01T09:55:46.111Z,3.30
2018-10-01T09:58:15.423Z,2.87
2018-10-01T10:00:50.241Z,3.00
2018-10-01T10:03:19.269Z,3.70
2018-10-01T10:05:48.837Z,3.33
2018-10-01T10:08:18.130Z,2.70
2018-10-01T10:10:47.167Z,3.10
2018-10-01T10:13:16.658Z,3.10
2018-10-01T10:15:46.301Z,3.47
2018-10-01T10:18:15.691Z,2.97
2018-10-01T10:20:46.057Z,3.90
2018-10-01T10:23:15.581Z,3.20
2018-10-01T10:25:44.839Z,3.70
2018-10-01T10:28:14.377Z,3.40
2018-10-01T10:30:43.599Z,4.17
2018-10-01T10:33:12.844Z,4.07
2018-10-01T10:35:42.207Z,4.60
2018-10-01T10:38:11.429Z,4.05
2018-10-01T10:40:40.938Z,5.00
2018-10-01T10:43:10.561Z,3.60
2018-10-01T10:45:40.355Z,3.50
2018-10-01T10:48:09.441Z,3.70
2018-10-01T10:50:38.974Z,4.12
2018-10-01T10:53:08.223Z,3.27
2018-10-01T10:55:37.557Z,3.40
2018-10-01T10:58:06.851Z,3.70
2018-10-01T11:00:36.108Z,3.52
2018-10-01T11:03:05.856Z,3.55
2018-10-01T11:05:35.072Z,3.87
2018-10-01T11:08:04.770Z,3.55
2018-10-01T11:10:34.167Z,4.28
2018-10-01T11:13:03.916Z,4.17
2018-10-01T11:15:33.452Z,4.05
2018-10-01T11:18:03.026Z,3.75
2018-10-01T11:20:32.160Z,3.90
2018-10-01T11:23:01.432Z,4.50
2018-10-01T11:25:30.895Z,4.87
2018-10-01T11:28:00.108Z,4.95
2018-10-01T11:30:29.479Z,4.70
2018-10-01T11:32:58.998Z,4.85
2018-10-01T11:35:28.499Z,5.90
2018-10-01T11:37:57.619Z,5.33
2018-10-01T11:40:27.050Z,5.17
2018-10-01T11:42:57.285Z,6.03
2018-10-01T11:45:26.789Z,5.40
2018-10-01T11:47:56.468Z,5.50
2018-10-01T11:50:25.681Z,6.17
2018-10-01T11:52:54.971Z,6.03
2018-10-01T11:55:25.267Z,6.10
2018-10-01T11:57:54.724Z,5.93
2018-10-01T12:00:24.407Z,5.93
2018-10-01T12:02:54.332Z,5.90
2018-10-01T12:05:23.458Z,5.53
2018-10-01T12:07:52.856Z,5.80
2018-10-01T12:10:22.058Z,5.60
2018-10-01T12:12:51.287Z,5.37
2018-10-01T12:15:20.760Z,6.27
2018-10-01T12:17:49.931Z,8.70
2018-10-01T12:20:19.718Z,9.40
2018-10-01T12:22:49.147Z,9.40
2018-10-01T12:25:18.947Z,8.10
2018-10-01T12:27:48.305Z,7.30
2018-10-01T12:30:17.809Z,9.80
2018-10-01T12:32:47.056Z,8.30
2018-10-01T12:35:16.554Z,7.77
2018-10-01T12:37:46.083Z,7.90
2018-10-01T12:40:15.360Z,8.03
2018-10-01T12:42:44.707Z,7.20
2018-10-01T12:45:13.962Z,7.70
2018-10-01T12:47:43.581Z,7.63
2018-10-01T12:50:13.236Z,7.23
2018-10-01T12:52:43.329Z,8.27
2018-10-01T12:55:12.789Z,7.50
2018-10-01T12:57:42.339Z,9.53
2018-10-01T13:00:11.635Z,9.67
2018-10-01T13:02:41.115Z,9.70
2018-10-01T13:05:10.829Z,9.47
2018-10-01T13:07:40.005Z,9.77
2018-10-01T13:10:09.609Z,9.83
2018-10-01T13:12:39.373Z,9.47
2018-10-01T13:15:08.811Z,9.90
2018-10-01T13:17:38.198Z,10.07
2018-10-01T13:20:07.829Z,9.80
2018-10-01T13:22:37.459Z,9.37
2018-10-01T13:25:07.041Z,9.93
2018-10-01T13:27:36.150Z,10.07
2018-10-01T13:30:05.948Z,10.33
2018-10-01T13:32:35.361Z,9.40
2018-10-01T13:35:04.850Z,8.90
2018-10-01T13:37:34.126Z,9.00
2018-10-01T13:40:03.508Z,9.00
2018-10-01T13:42:33.008Z,9.70
2018-10-01T13:45:02.406Z,9.30
2018-10-01T13:47:31.911Z,10.00
2018-10-01T13:50:01.590Z,10.23
2018-10-01T13:52:30.752Z,9.37
2018-10-01T13:55:00.086Z,9.47
2018-10-01T13:57:29.592Z,8.80
2018-10-01T13:59:59.198Z,9.33
2018-10-01T14:02:28.576Z,10.10
2018-10-01T14:04:57.901Z,13.40
2018-10-01T14:07:27.822Z,21.23
2018-10-01T14:09:58.684Z,11.30
2018-10-01T14:12:28.031Z,66.60
2018-10-01T14:14:57.376Z,48.03
2018-10-01T14:17:26.619Z,56.83
2018-10-01T14:19:56.198Z,43.83
2018-10-01T14:22:25.660Z,23.20
2018-10-01T14:24:55.067Z,22.77
2018-10-01T14:27:24.483Z,21.53
2018-10-01T14:29:53.896Z,22.90
2018-10-01T14:32:23.181Z,21.30
2018-10-01T14:34:52.683Z,13.97
2018-10-01T14:37:22.209Z,17.63
2018-10-01T14:39:51.360Z,20.37
2018-10-01T14:42:20.732Z,23.20
2018-10-01T14:44:50.549Z,24.30
2018-10-01T14:47:20.111Z,23.77
2018-10-01T14:49:49.721Z,21.07
2018-10-01T14:52:19.448Z,20.97
2018-10-01T14:54:49.058Z,22.77
2018-10-01T14:57:18.393Z,17.43
2018-10-01T14:59:47.728Z,13.10
2018-10-01T15:02:17.156Z,14.73
2018-10-01T15:04:46.663Z,13.43
2018-10-01T15:07:16.005Z,13.43
2018-10-01T15:09:45.443Z,15.67
2018-10-01T15:12:15.032Z,16.73
2018-10-01T15:14:44.210Z,15.57
2018-10-01T15:17:13.756Z,16.97
2018-10-01T15:19:43.091Z,17.33
2018-10-01T15:22:12.525Z,21.63
2018-10-01T15:24:42.037Z,19.17
2018-10-01T15:27:12.783Z,19.30
2018-10-01T15:29:42.077Z,21.67
2018-10-01T15:32:11.689Z,26.30
2018-10-01T15:34:41.180Z,25.60
2018-10-01T15:37:10.452Z,28.10
2018-10-01T15:39:39.664Z,28.83
2018-10-01T15:42:09.286Z,23.40
2018-10-01T15:44:38.527Z,30.33
2018-10-01T15:47:07.921Z,24.40
2018-10-01T15:49:37.083Z,24.40
2018-10-01T15:52:07.397Z,21.80
2018-10-01T15:54:36.636Z,22.40
2018-10-01T15:57:05.991Z,25.70
2018-10-01T15:59:35.585Z,23.03
2018-10-01T16:02:05.299Z,18.17
2018-10-01T16:04:34.639Z,16.83
2018-10-01T16:07:04.114Z,18.30
2018-10-01T16:09:33.792Z,19.13
2018-10-01T16:12:03.178Z,19.73
2018-10-01T16:14:32.511Z,17.63
2018-10-01T16:17:01.813Z,16.57
2018-10-01T16:19:31.887Z,17.07
2018-10-01T16:22:02.753Z,17.60
2018-10-01T16:24:32.068Z,18.97
2018-10-01T16:27:01.638Z,20.00
2018-10-01T16:29:30.993Z,20.87
2018-10-01T16:32:00.386Z,18.43
2018-10-01T16:34:29.989Z,17.97
2018-10-01T16:36:59.506Z,18.40
2018-10-01T16:39:29.220Z,17.83
2018-10-01T16:41:58.267Z,18.20
2018-10-01T16:44:28.114Z,17.63
2018-10-01T16:46:57.699Z,18.03
2018-10-01T16:49:29.243Z,18.23
2018-10-01T16:51:59.211Z,25.20
2018-10-01T16:54:28.754Z,21.90
2018-10-01T16:56:58.232Z,30.53
2018-10-01T16:59:27.956Z,28.33
2018-10-01T17:01:59.405Z,31.57
2018-10-01T17:04:28.431Z,24.00
2018-10-01T17:06:58.010Z,26.17
2018-10-01T17:09:27.438Z,29.50
2018-10-01T17:11:56.783Z,30.53
2018-10-01T17:14:26.245Z,33.90
2018-10-01T17:16:55.891Z,48.40
2018-10-01T17:19:25.694Z,46.67
2018-10-01T17:21:54.975Z,69.57
2018-10-01T17:24:24.303Z,58.07
2018-10-01T17:26:53.917Z,80.40
2018-10-01T17:29:23.295Z,77.87
2018-10-01T17:31:53.143Z,75.37
2018-10-01T17:34:22.562Z,73.13
2018-10-01T17:36:52.018Z,71.03
2018-10-01T17:39:21.353Z,77.93
2018-10-01T17:41:50.848Z,76.87
2018-10-01T17:44:20.488Z,78.93
2018-10-01T17:46:50.212Z,78.60
2018-10-01T17:49:19.586Z,73.07
2018-10-01T17:51:48.737Z,76.50
2018-10-01T17:54:19.486Z,84.13
2018-10-01T17:56:49.350Z,66.50
2018-10-01T17:59:19.173Z,51.70
2018-10-01T18:01:49.035Z,49.90
2018-10-01T18:04:18.521Z,50.83
2018-10-01T18:06:47.944Z,57.77
2018-10-01T18:09:17.116Z,52.80
2018-10-01T18:11:46.573Z,53.97
2018-10-01T18:14:15.999Z,38.53
2018-10-01T18:16:45.845Z,33.53
2018-10-01T18:19:15.232Z,33.97
2018-10-01T18:21:44.677Z,33.47
2018-10-01T18:24:14.038Z,35.30
2018-10-01T18:26:43.475Z,71.30
2018-10-01T18:29:12.591Z,76.07
2018-10-01T18:31:41.925Z,94.70
2018-10-01T18:34:11.726Z,235.37
2018-10-01T18:36:40.994Z,109.23
2018-10-01T18:39:18.181Z,115.60
2018-10-01T18:41:48.247Z,91.77
2018-10-01T18:44:17.509Z,92.70
2018-10-01T18:46:47.825Z,89.90
2018-10-01T18:49:17.897Z,86.00
2018-10-01T18:51:47.252Z,75.40
2018-10-01T18:54:16.582Z,78.43
2018-10-01T18:56:45.970Z,91.37
2018-10-01T18:59:15.305Z,94.27
2018-10-01T19:01:45.318Z,102.50
2018-10-01T19:04:14.690Z,102.33
2018-10-01T19:06:44.155Z,99.33
2018-10-01T19:09:13.879Z,105.73
2018-10-01T19:11:43.237Z,107.93
2018-10-01T19:14:13.386Z,107.37
2018-10-01T19:16:43.078Z,101.27
2018-10-01T19:19:12.341Z,108.57
2018-10-01T19:21:41.604Z,86.47
2018-10-01T19:24:11.103Z,98.07
2018-10-01T19:26:40.947Z,55.20
2018-10-01T19:29:10.412Z,30.83
2018-10-01T19:31:41.527Z,30.70
2018-10-01T19:34:10.803Z,31.90
2018-10-01T19:36:40.240Z,31.93
2018-10-01T19:39:09.885Z,31.70
2018-10-01T19:41:39.797Z,34.30
2018-10-01T19:44:09.591Z,37.70
2018-10-01T19:46:39.281Z,35.87
2018-10-01T19:49:08.912Z,36.77
2018-10-01T19:51:38.512Z,36.50
2018-10-01T19:54:08.239Z,39.57
2018-10-01T19:56:37.852Z,39.60
2018-10-01T19:59:07.755Z,47.13
2018-10-01T20:01:37.553Z,48.87
2018-10-01T20:04:07.200Z,70.67
2018-10-01T20:06:37.389Z,66.90
2018-10-01T20:09:09.109Z,65.20
2018-10-01T20:11:38.439Z,69.90
2018-10-01T20:14:08.094Z,82.73
2018-10-01T20:16:37.546Z,76.67
2018-10-01T20:19:07.431Z,83.30
2018-10-01T20:21:36.810Z,81.90
2018-10-01T20:24:06.109Z,80.80
2018-10-01T20:26:36.188Z,96.97
2018-10-01T20:29:05.600Z,82.93
2018-10-01T20:31:34.630Z,78.50
2018-10-01T20:34:04.282Z,78.30
2018-10-01T20:36:34.097Z,82.03
2018-10-01T20:39:03.842Z,81.50
2018-10-01T20:41:33.054Z,81.53
2018-10-01T20:44:02.997Z,84.27
2018-10-01T20:46:32.369Z,81.17
2018-10-01T20:49:01.709Z,74.53
2018-10-01T20:51:30.672Z,73.47
2018-10-01T20:54:00.105Z,66.07
2018-10-01T20:56:29.132Z,59.60
2018-10-01T20:58:58.390Z,52.20
2018-10-01T21:01:27.802Z,50.03
2018-10-01T21:03:56.880Z,47.30
2018-10-01T21:06:26.310Z,45.90
2018-10-01T21:08:55.843Z,48.27
2018-10-01T21:11:25.065Z,47.53
2018-10-01T21:13:54.904Z,46.57
2018-10-01T21:16:24.402Z,46.43
2018-10-01T21:18:53.484Z,45.83
2018-10-01T21:21:23.132Z,34.63
2018-10-01T21:23:52.104Z,34.33
2018-10-01T21:26:21.691Z,31.87
2018-10-01T21:28:51.027Z,28.40
2018-10-01T21:31:20.220Z,28.97
2018-10-01T21:33:49.546Z,27.03
2018-10-01T21:36:19.106Z,25.87
2018-10-01T21:38:48.412Z,26.17
2018-10-01T21:41:17.941Z,23.37
2018-10-01T21:43:47.051Z,20.97
2018-10-01T21:46:16.304Z,20.93
2018-10-01T21:48:46.148Z,20.20
2018-10-01T21:51:15.789Z,18.77
2018-10-01T21:53:45.188Z,19.60
2018-10-01T21:56:14.503Z,19.03
2018-10-01T21:58:43.979Z,18.57
2018-10-01T22:01:18.516Z,18.87
2018-10-01T22:03:48.295Z,21.27
2018-10-01T22:06:17.330Z,15.20
2018-10-01T22:08:47.208Z,16.67
2018-10-01T22:11:16.710Z,17.77
2018-10-01T22:13:46.873Z,17.80
2018-10-01T22:16:16.128Z,17.30
2018-10-01T22:18:45.470Z,14.47
2018-10-01T22:21:14.748Z,14.73
2018-10-01T22:23:43.972Z,13.43
2018-10-01T22:26:13.380Z,13.50
2018-10-01T22:28:42.807Z,15.07
2018-10-01T22:31:12.184Z,14.03
2018-10-01T22:33:41.590Z,13.87
2018-10-01T22:36:11.088Z,13.67
2018-10-01T22:38:40.580Z,12.73
2018-10-01T22:41:10.093Z,12.60
2018-10-01T22:43:39.546Z,12.57
2018-10-01T22:46:08.811Z,12.87
2018-10-01T22:48:38.277Z,12.00
2018-10-01T22:51:07.691Z,11.03
2018-10-01T22:53:37.021Z,10.17
2018-10-01T22:56:06.736Z,10.30
2018-10-01T22:58:35.865Z,9.33
2018-10-01T23:01:05.653Z,9.10
2018-10-01T23:03:35.022Z,9.50
2018-10-01T23:06:04.399Z,9.17
2018-10-01T23:08:33.572Z,9.30
2018-10-01T23:11:03.136Z,9.87
2018-10-01T23:13:32.344Z,9.10
2018-10-01T23:16:01.629Z,8.97
2018-10-01T23:18:30.801Z,9.07
2018-10-01T23:21:00.188Z,8.60
2018-10-01T23:23:29.520Z,7.77
2018-10-01T23:25:59.321Z,8.30
2018-10-01T23:28:28.745Z,7.77
2018-10-01T23:30:58.356Z,8.10
2018-10-01T23:33:27.607Z,8.27
2018-10-01T23:35:56.832Z,7.77
2018-10-01T23:38:26.435Z,8.10
2018-10-01T23:40:55.671Z,7.83
2018-10-01T23:43:25.140Z,7.30
2018-10-01T23:45:54.835Z,7.07
2018-10-01T23:48:24.232Z,6.27
2018-10-01T23:50:53.426Z,7.37
2018-10-01T23:53:22.986Z,6.93
2018-10-01T23:55:51.964Z,6.73
2018-10-01T23:58:21.521Z,7.23
